Wetterdaten: Woche 13.11.06 - 19.11.06 (KW46)
Datum Zeit Temperatur Luftfeuchte Luftdruck Niederschlag Wind Richtung Sonnenschein UV-Strahlung Solar Taupunkt Windchill Windben
13.11.2006 00:00 6.8 C 81 % 1022.1 hPa 0.0 l/m 6.6 km/h (2 Bft) W 0.00 h 0.0 UV-I 0 W/m 3.7 C 5.6 C 10.7 km/h (2 Bft)
13.11.2006 01:00 6.7 C 80 % 1021.7 hPa 0.0 l/m 3.3 km/h (1 Bft) W-NW 0.00 h 0.0 UV-I 0 W/m 3.5 C 6.4 C 6.3 km/h (2 Bft)
13.11.2006 02:00 6.6 C 79 % 1021.5 hPa 0.0 l/m 4.6 km/h (1 Bft) W-NW 0.00 h 0.0 UV-I 0 W/m 3.3 C 6.0 C 7.5 km/h (2 Bft)
13.11.2006 03:00 6.6 C 79 % 1021.4 hPa 0.0 l/m 5.0 km/h (1 Bft) W-NW 0.00 h 0.0 UV-I 0 W/m 3.3 C 6.0 C 8.2 km/h (2 Bft)
13.11.2006 04:00 6.5 C 78 % 1021.4 hPa 0.0 l/m 3.6 km/h (1 Bft) W-SW 0.00 h 0.0 UV-I 0 W/m 3.0 C 6.1 C 7.2 km/h (2 Bft)
13.11.2006 05:00 6.2 C 80 % 1021.3 hPa 0.0 l/m 0.3 km/h (0 Bft) SW 0.00 h 0.0 UV-I 0 W/m 3.0 C 6.2 C 1.7 km/h (1 Bft)
13.11.2006 06:00 6.1 C 82 % 1021.3 hPa 0.0 l/m 0.2 km/h (0 Bft) S-SW 0.00 h 0.0 UV-I 0 W/m 3.3 C 6.1 C 1.2 km/h (1 Bft)
13.11.2006 07:00 6.6 C 80 % 1020.8 hPa 0.0 l/m 1.3 km/h (1 Bft) NW 0.00 h 0.0 UV-I 7 W/m 3.4 C 6.5 C 3.1 km/h (1 Bft)
13.11.2006 08:00 6.7 C 79 % 1020.5 hPa 0.0 l/m 2.2 km/h (1 Bft) S-SO 0.00 h 0.0 UV-I 34 W/m 3.4 C 6.5 C 5.2 km/h (1 Bft)
13.11.2006 09:00 7.3 C 79 % 1020.2 hPa 0.0 l/m 0.5 km/h (0 Bft) W 0.00 h 0.6 UV-I 93 W/m 3.9 C 7.3 C 2.0 km/h (1 Bft)
13.11.2006 10:00 8.2 C 79 % 1019.9 hPa 0.0 l/m 0.7 km/h (0 Bft) SW 0.00 h 0.8 UV-I 102 W/m 4.8 C 8.2 C 2.3 km/h (1 Bft)
13.11.2006 11:00 9.0 C 77 % 1019.5 hPa 0.0 l/m 3.4 km/h (1 Bft) W-SW 0.05 h 1.2 UV-I 138 W/m 5.1 C 8.8 C 6.9 km/h (2 Bft)
13.11.2006 12:00 10.1 C 73 % 1018.8 hPa 0.0 l/m 5.5 km/h (1 Bft) W-SW 0.00 h 1.2 UV-I 183 W/m 5.4 C 9.9 C 10.3 km/h (2 Bft)
13.11.2006 13:00 10.5 C 69 % 1018.3 hPa 0.0 l/m 8.4 km/h (2 Bft) W 0.00 h 0.6 UV-I 75 W/m 5.1 C 10.5 C 13.9 km/h (3 Bft)
13.11.2006 14:00 10.6 C 69 % 1018.1 hPa 0.0 l/m 13.6 km/h (3 Bft) W 0.00 h 0.6 UV-I 80 W/m 5.2 C 10.6 C 22.0 km/h (4 Bft)
13.11.2006 15:00 10.4 C 72 % 1017.7 hPa 0.0 l/m 9.6 km/h (2 Bft) W 0.00 h 0.5 UV-I 52 W/m 5.5 C 10.4 C 15.2 km/h (3 Bft)
13.11.2006 16:00 9.4 C 80 % 1017.8 hPa 0.0 l/m 1.5 km/h (1 Bft) W-SW 0.00 h 0.0 UV-I 15 W/m 6.1 C 9.4 C 4.1 km/h (1 Bft)
13.11.2006 17:00 9.1 C 79 % 1018.0 hPa 0.0 l/m 1.6 km/h (1 Bft) S-SO 0.00 h 0.0 UV-I 0 W/m 5.7 C 9.1 C 4.4 km/h (1 Bft)
13.11.2006 18:00 9.1 C 82 % 1018.3 hPa 0.2 l/m 2.0 km/h (1 Bft) SO 0.00 h 0.0 UV-I 0 W/m 6.2 C 9.1 C 3.8 km/h (1 Bft)
13.11.2006 19:00 9.6 C 81 % 1018.3 hPa 0.0 l/m 1.2 km/h (1 Bft) W 0.00 h 0.0 UV-I 0 W/m 6.5 C 9.6 C 3.1 km/h (1 Bft)
13.11.2006 20:00 9.7 C 83 % 1018.5 hPa 0.0 l/m 1.9 km/h (1 Bft) W 0.00 h 0.0 UV-I 0 W/m 7.0 C 9.6 C 5.1 km/h (1 Bft)
13.11.2006 21:00 9.8 C 82 % 1018.7 hPa 0.0 l/m 4.2 km/h (1 Bft) S-SW 0.00 h 0.0 UV-I 0 W/m 6.9 C 9.5 C 9.1 km/h (2 Bft)
13.11.2006 22:00 9.8 C 80 % 1018.5 hPa 0.0 l/m 1.6 km/h (1 Bft) SO 0.00 h 0.0 UV-I 0 W/m 6.6 C 9.8 C 3.8 km/h (1 Bft)
13.11.2006 23:00 10.0 C 80 % 1018.3 hPa 0.0 l/m 2.4 km/h (1 Bft) S-SO 0.00 h 0.0 UV-I 0 W/m 6.7 C 9.9 C 5.7 km/h (1 Bft)
14.11.2006 00:00 9.8 C 83 % 1018.3 hPa 0.0 l/m 2.7 km/h (1 Bft) S-SO 0.00 h 0.0 UV-I 0 W/m 7.1 C 9.7 C 6.0 km/h (2 Bft)
14.11.2006 01:00 9.2 C 90 % 1018.0 hPa 0.4 l/m 3.2 km/h (1 Bft) S 0.00 h 0.0 UV-I 0 W/m 7.6 C 9.0 C 7.5 km/h (2 Bft)
14.11.2006 02:00 8.7 C 95 % 1018.1 hPa 0.2 l/m 2.9 km/h (1 Bft) S 0.00 h 0.0 UV-I 0 W/m 7.9 C 8.5 C 6.6 km/h (2 Bft)
14.11.2006 03:00 8.6 C 95 % 1017.9 hPa 0.0 l/m 3.4 km/h (1 Bft) S-SW 0.00 h 0.0 UV-I 0 W/m 7.9 C 8.5 C 8.2 km/h (2 Bft)
14.11.2006 04:00 8.7 C 95 % 1017.7 hPa 0.8 l/m 5.3 km/h (1 Bft) S 0.00 h 0.0 UV-I 0 W/m 7.9 C 8.1 C 10.8 km/h (2 Bft)
14.11.2006 05:00 8.8 C 95 % 1017.7 hPa 0.2 l/m 5.0 km/h (1 Bft) S-SO 0.00 h 0.0 UV-I 0 W/m 8.0 C 8.3 C 10.2 km/h (2 Bft)
14.11.2006 06:00 8.7 C 96 % 1017.7 hPa 1.6 l/m 5.4 km/h (1 Bft) S-SO 0.00 h 0.0 UV-I 0 W/m 8.1 C 8.1 C 10.6 km/h (2 Bft)
14.11.2006 07:00 8.7 C 97 % 1017.8 hPa 1.0 l/m 4.5 km/h (1 Bft) S-SO 0.00 h 0.0 UV-I 0 W/m 8.3 C 8.3 C 9.2 km/h (2 Bft)
14.11.2006 08:00 8.9 C 97 % 1018.2 hPa 0.2 l/m 4.7 km/h (1 Bft) S-SO 0.00 h 0.0 UV-I 24 W/m 8.5 C 8.5 C 9.6 km/h (2 Bft)
14.11.2006 09:00 9.3 C 98 % 1018.5 hPa 0.0 l/m 3.9 km/h (1 Bft) S-SW 0.00 h 0.0 UV-I 38 W/m 8.9 C 9.0 C 8.7 km/h (2 Bft)
14.11.2006 10:00 9.6 C 97 % 1018.8 hPa 0.0 l/m 3.2 km/h (1 Bft) S 0.00 h 0.7 UV-I 61 W/m 9.1 C 9.5 C 6.9 km/h (2 Bft)
14.11.2006 11:00 10.8 C 94 % 1018.9 hPa 0.0 l/m 1.9 km/h (1 Bft) S-SO 0.00 h 0.8 UV-I 115 W/m 9.8 C 10.8 C 5.0 km/h (1 Bft)
14.11.2006 12:00 11.0 C 92 % 1018.5 hPa 0.0 l/m 2.6 km/h (1 Bft) S-SO 0.00 h 0.8 UV-I 82 W/m 9.7 C 11.0 C 5.5 km/h (1 Bft)
14.11.2006 13:00 12.4 C 89 % 1018.1 hPa 0.0 l/m 2.4 km/h (1 Bft) S 0.03 h 1.0 UV-I 158 W/m 10.6 C 12.4 C 5.8 km/h (2 Bft)
14.11.2006 14:00 13.1 C 89 % 1017.5 hPa 0.0 l/m 1.0 km/h (0 Bft) S 0.00 h 0.7 UV-I 102 W/m 11.3 C 13.1 C 3.2 km/h (1 Bft)
14.11.2006 15:00 12.9 C 89 % 1017.3 hPa 0.0 l/m 0.8 km/h (0 Bft) S 0.08 h 0.5 UV-I 65 W/m 11.2 C 12.9 C 2.8 km/h (1 Bft)
14.11.2006 16:00 12.4 C 90 % 1017.3 hPa 0.0 l/m 1.0 km/h (0 Bft) S 0.12 h 0.0 UV-I 25 W/m 10.7 C 12.4 C 3.2 km/h (1 Bft)
14.11.2006 17:00 12.2 C 90 % 1017.5 hPa 0.0 l/m 2.0 km/h (1 Bft) S-SO 0.00 h 0.0 UV-I 0 W/m 10.6 C 12.2 C 4.4 km/h (1 Bft)
14.11.2006 18:00 12.0 C 91 % 1017.9 hPa 0.0 l/m 3.7 km/h (1 Bft) S-SO 0.00 h 0.0 UV-I 0 W/m 10.6 C 12.0 C 6.6 km/h (2 Bft)
14.11.2006 19:00 11.7 C 92 % 1018.0 hPa 0.0 l/m 0.9 km/h (0 Bft) S-SO 0.00 h 0.0 UV-I 0 W/m 10.6 C 11.7 C 2.5 km/h (1 Bft)
14.11.2006 20:00 11.7 C 93 % 1018.3 hPa 0.0 l/m 1.6 km/h (1 Bft) S-SO 0.00 h 0.0 UV-I 0 W/m 10.6 C 11.7 C 3.2 km/h (1 Bft)
14.11.2006 21:00 11.4 C 94 % 1018.6 hPa 0.0 l/m 0.0 km/h (0 Bft) S 0.00 h 0.0 UV-I 0 W/m 10.4 C 11.4 C 0.3 km/h (0 Bft)
14.11.2006 22:00 11.1 C 96 % 1018.9 hPa 0.0 l/m 1.3 km/h (1 Bft) S-SO 0.00 h 0.0 UV-I 0 W/m 10.4 C 11.1 C 2.9 km/h (1 Bft)
14.11.2006 23:00 10.8 C 96 % 1019.0 hPa 0.0 l/m 1.6 km/h (1 Bft) S-SO 0.00 h 0.0 UV-I 0 W/m 10.2 C 10.8 C 3.0 km/h (1 Bft)
15.11.2006 00:00 10.6 C 96 % 1019.4 hPa 0.0 l/m 1.0 km/h (0 Bft) SO 0.00 h 0.0 UV-I 0 W/m 10.0 C 10.6 C 1.9 km/h (1 Bft)
15.11.2006 01:00 10.3 C 97 % 1019.2 hPa 0.0 l/m 2.9 km/h (1 Bft) SO 0.00 h 0.0 UV-I 0 W/m 9.9 C 10.3 C 4.6 km/h (1 Bft)
15.11.2006 02:00 10.1 C 97 % 1019.3 hPa 0.0 l/m 2.5 km/h (1 Bft) S-SO 0.00 h 0.0 UV-I 0 W/m 9.6 C 10.1 C 4.8 km/h (1 Bft)
15.11.2006 03:00 10.2 C 98 % 1019.3 hPa 0.0 l/m 2.2 km/h (1 Bft) SO 0.00 h 0.0 UV-I 0 W/m 9.9 C 10.2 C 4.3 km/h (1 Bft)
15.11.2006 04:00 10.3 C 98 % 1018.9 hPa 0.0 l/m 1.6 km/h (1 Bft) SO 0.00 h 0.0 UV-I 0 W/m 10.0 C 10.3 C 3.8 km/h (1 Bft)
15.11.2006 05:00 10.3 C 97 % 1018.9 hPa 0.0 l/m 1.6 km/h (1 Bft) S 0.00 h 0.0 UV-I 0 W/m 9.8 C 10.3 C 4.1 km/h (1 Bft)
15.11.2006 06:00 10.2 C 97 % 1018.9 hPa 0.0 l/m 0.7 km/h (0 Bft) S 0.00 h 0.0 UV-I 0 W/m 9.7 C 10.2 C 2.5 km/h (1 Bft)
15.11.2006 07:00 10.1 C 97 % 1019.0 hPa 0.0 l/m 0.3 km/h (0 Bft) S-SO 0.00 h 0.0 UV-I 7 W/m 9.6 C 10.1 C 1.0 km/h (0 Bft)
15.11.2006 08:00 10.1 C 97 % 1019.1 hPa 0.0 l/m 0.1 km/h (0 Bft) S-SO 0.00 h 0.0 UV-I 21 W/m 9.7 C 10.1 C 0.6 km/h (0 Bft)
15.11.2006 09:00 10.3 C 97 % 1019.0 hPa 0.0 l/m 0.3 km/h (0 Bft) S 0.00 h 0.5 UV-I 51 W/m 9.8 C 10.3 C 1.7 km/h (1 Bft)
15.11.2006 10:00 10.5 C 96 % 1019.1 hPa 0.0 l/m 0.7 km/h (0 Bft) S-SW 0.00 h 0.6 UV-I 79 W/m 9.9 C 10.5 C 2.5 km/h (1 Bft)
15.11.2006 11:00 10.8 C 94 % 1018.8 hPa 0.0 l/m 0.9 km/h (0 Bft) O-SO 0.00 h 0.9 UV-I 125 W/m 9.8 C 10.8 C 2.5 km/h (1 Bft)
15.11.2006 12:00 11.2 C 91 % 1018.1 hPa 0.0 l/m 1.3 km/h (1 Bft) S-SO 0.08 h 1.1 UV-I 177 W/m 9.8 C 11.2 C 3.6 km/h (1 Bft)
15.11.2006 13:00 12.4 C 86 % 1017.3 hPa 0.0 l/m 1.4 km/h (1 Bft) S 1.00 h 1.3 UV-I 302 W/m 10.1 C 12.4 C 3.4 km/h (1 Bft)
15.11.2006 14:00 12.7 C 84 % 1016.4 hPa 0.0 l/m 0.4 km/h (0 Bft) SO 1.00 h 0.9 UV-I 215 W/m 10.1 C 12.7 C 1.4 km/h (1 Bft)
15.11.2006 15:00 13.1 C 83 % 1015.8 hPa 0.0 l/m 0.8 km/h (0 Bft) W 0.42 h 0.6 UV-I 101 W/m 10.3 C 13.1 C 2.2 km/h (1 Bft)
15.11.2006 16:00 12.0 C 88 % 1015.5 hPa 0.0 l/m 0.4 km/h (0 Bft) W 0.02 h 0.0 UV-I 24 W/m 10.0 C 12.0 C 0.8 km/h (0 Bft)
15.11.2006 17:00 9.9 C 94 % 1015.3 hPa 0.0 l/m 0.4 km/h (0 Bft) S 0.00 h 0.0 UV-I 0 W/m 9.0 C 9.9 C 0.9 km/h (0 Bft)
15.11.2006 18:00 8.2 C 97 % 1015.5 hPa 0.0 l/m 0.5 km/h (0 Bft) S 0.00 h 0.0 UV-I 0 W/m 7.8 C 8.2 C 1.5 km/h (1 Bft)
15.11.2006 19:00 7.7 C 99 % 1015.5 hPa 0.0 l/m 0.7 km/h (0 Bft) SO 0.00 h 0.0 UV-I 0 W/m 7.6 C 7.7 C 2.3 km/h (1 Bft)
15.11.2006 20:00 7.5 C 100 % 1015.3 hPa 0.0 l/m 0.6 km/h (0 Bft) O-SO 0.00 h 0.0 UV-I 0 W/m 7.5 C 7.5 C 2.1 km/h (1 Bft)
15.11.2006 21:00 7.4 C 100 % 1015.4 hPa 0.0 l/m 0.9 km/h (0 Bft) S-SO 0.00 h 0.0 UV-I 0 W/m 7.4 C 7.4 C 2.6 km/h (1 Bft)
15.11.2006 22:00 7.3 C 100 % 1015.3 hPa 0.0 l/m 0.9 km/h (0 Bft) O-SO 0.00 h 0.0 UV-I 0 W/m 7.3 C 7.3 C 2.4 km/h (1 Bft)
15.11.2006 23:00 7.3 C 100 % 1015.1 hPa 0.0 l/m 0.4 km/h (0 Bft) S-SW 0.00 h 0.0 UV-I 0 W/m 7.3 C 7.3 C 2.0 km/h (1 Bft)
16.11.2006 00:00 7.3 C 100 % 1015.0 hPa 0.0 l/m 0.6 km/h (0 Bft) SO 0.00 h 0.0 UV-I 0 W/m 7.3 C 7.3 C 1.9 km/h (1 Bft)
16.11.2006 01:00 7.5 C 100 % 1014.7 hPa 0.2 l/m 0.0 km/h (0 Bft) N 0.00 h 0.0 UV-I 0 W/m 7.5 C 7.5 C 0.2 km/h (0 Bft)
16.11.2006 02:00 7.3 C 100 % 1014.5 hPa 0.0 l/m 2.8 km/h (1 Bft) O-SO 0.00 h 0.0 UV-I 0 W/m 7.3 C 7.1 C 4.0 km/h (1 Bft)
16.11.2006 03:00 7.1 C 100 % 1014.2 hPa 0.0 l/m 1.7 km/h (1 Bft) O-SO 0.00 h 0.0 UV-I 0 W/m 7.1 C 7.0 C 3.6 km/h (1 Bft)
16.11.2006 04:00 7.0 C 100 % 1013.9 hPa 0.0 l/m 0.4 km/h (0 Bft) SO 0.00 h 0.0 UV-I 0 W/m 7.0 C 7.0 C 1.5 km/h (1 Bft)
16.11.2006 05:00 6.7 C 100 % 1013.6 hPa 0.0 l/m 0.9 km/h (0 Bft) N 0.00 h 0.0 UV-I 0 W/m 6.7 C 6.7 C 2.0 km/h (1 Bft)
16.11.2006 06:00 6.5 C 100 % 1013.6 hPa 0.0 l/m 1.1 km/h (1 Bft) SO 0.00 h 0.0 UV-I 0 W/m 6.5 C 6.4 C 2.2 km/h (1 Bft)
16.11.2006 07:00 6.2 C 100 % 1013.6 hPa 0.0 l/m 0.6 km/h (0 Bft) SO 0.00 h 0.0 UV-I 5 W/m 6.2 C 6.2 C 1.9 km/h (1 Bft)
16.11.2006 08:00 6.0 C 100 % 1014.2 hPa 0.0 l/m 1.0 km/h (0 Bft) O-SO 0.00 h 0.0 UV-I 19 W/m 6.0 C 6.0 C 2.3 km/h (1 Bft)
16.11.2006 09:00 6.2 C 100 % 1014.2 hPa 0.0 l/m 1.6 km/h (1 Bft) O-SO 0.00 h 0.5 UV-I 51 W/m 6.2 C 6.1 C 3.4 km/h (1 Bft)
16.11.2006 10:00 6.4 C 100 % 1013.8 hPa 0.0 l/m 1.5 km/h (1 Bft) O-SO 0.00 h 0.6 UV-I 82 W/m 6.4 C 6.3 C 3.2 km/h (1 Bft)
16.11.2006 11:00 7.0 C 100 % 1013.5 hPa 0.0 l/m 0.9 km/h (0 Bft) SO 0.00 h 0.8 UV-I 102 W/m 7.0 C 6.9 C 2.1 km/h (1 Bft)
16.11.2006 12:00 7.4 C 100 % 1012.8 hPa 0.0 l/m 0.2 km/h (0 Bft) O 0.00 h 0.9 UV-I 121 W/m 7.4 C 7.4 C 1.4 km/h (1 Bft)
16.11.2006 13:00 8.4 C 98 % 1012.2 hPa 0.0 l/m 0.3 km/h (0 Bft) NW 0.00 h 0.8 UV-I 123 W/m 8.1 C 8.4 C 1.5 km/h (1 Bft)
16.11.2006 14:00 8.7 C 96 % 1011.4 hPa 0.0 l/m 1.1 km/h (0 Bft) NW 0.00 h 0.6 UV-I 93 W/m 8.0 C 8.7 C 2.5 km/h (1 Bft)
16.11.2006 15:00 8.6 C 96 % 1010.9 hPa 0.0 l/m 0.4 km/h (0 Bft) W-NW 0.00 h 0.5 UV-I 25 W/m 8.0 C 8.6 C 1.0 km/h (0 Bft)
16.11.2006 16:00 8.6 C 96 % 1010.7 hPa 0.0 l/m 0.9 km/h (0 Bft) SO 0.00 h 0.0 UV-I 9 W/m 8.0 C 8.6 C 1.9 km/h (1 Bft)
16.11.2006 17:00 8.4 C 97 % 1010.9 hPa 0.0 l/m 0.3 km/h (0 Bft) O-SO 0.00 h 0.0 UV-I 0 W/m 8.0 C 8.4 C 1.5 km/h (1 Bft)
16.11.2006 18:00 8.1 C 98 % 1011.0 hPa 0.0 l/m 2.3 km/h (1 Bft) W 0.00 h 0.0 UV-I 0 W/m 7.8 C 7.9 C 4.5 km/h (1 Bft)
16.11.2006 19:00 8.1 C 98 % 1011.3 hPa 0.0 l/m 0.1 km/h (0 Bft) S-SO 0.00 h 0.0 UV-I 0 W/m 7.8 C 8.1 C 0.5 km/h (0 Bft)
16.11.2006 20:00 8.1 C 99 % 1011.3 hPa 0.0 l/m 0.2 km/h (0 Bft) O-SO 0.00 h 0.0 UV-I 0 W/m 7.9 C 8.1 C 0.7 km/h (0 Bft)
16.11.2006 21:00 8.1 C 99 % 1011.3 hPa 0.0 l/m 0.0 km/h (0 Bft) O-SO 0.00 h 0.0 UV-I 0 W/m 8.0 C 8.1 C 0.7 km/h (0 Bft)
16.11.2006 22:00 8.1 C 99 % 1011.5 hPa 0.0 l/m 1.1 km/h (1 Bft) N 0.00 h 0.0 UV-I 0 W/m 8.0 C 8.1 C 2.5 km/h (1 Bft)
16.11.2006 23:00 8.2 C 99 % 1011.4 hPa 0.0 l/m 0.7 km/h (0 Bft) O 0.00 h 0.0 UV-I 0 W/m 8.0 C 8.2 C 1.7 km/h (1 Bft)
17.11.2006 00:00 8.1 C 99 % 1011.5 hPa 0.0 l/m 0.8 km/h (0 Bft) O-SO 0.00 h 0.0 UV-I 0 W/m 8.0 C 8.0 C 1.5 km/h (1 Bft)
17.11.2006 01:00 8.1 C 99 % 1010.9 hPa 0.0 l/m 1.1 km/h (0 Bft) S-SW 0.00 h 0.0 UV-I 0 W/m 8.0 C 8.1 C 2.3 km/h (1 Bft)
17.11.2006 02:00 8.2 C 99 % 1011.2 hPa 0.0 l/m 0.5 km/h (0 Bft) O-SO 0.00 h 0.0 UV-I 0 W/m 8.0 C 8.2 C 1.2 km/h (1 Bft)
17.11.2006 03:00 8.3 C 99 % 1011.3 hPa 0.6 l/m 0.6 km/h (0 Bft) O 0.00 h 0.0 UV-I 0 W/m 8.1 C 8.3 C 1.7 km/h (1 Bft)
17.11.2006 04:00 8.2 C 99 % 1011.2 hPa 0.0 l/m 1.0 km/h (0 Bft) O-SO 0.00 h 0.0 UV-I 0 W/m 8.1 C 8.2 C 2.3 km/h (1 Bft)
17.11.2006 05:00 8.3 C 99 % 1010.6 hPa 0.2 l/m 0.1 km/h (0 Bft) O-SO 0.00 h 0.0 UV-I 0 W/m 8.2 C 8.3 C 0.7 km/h (0 Bft)
17.11.2006 06:00 8.3 C 99 % 1010.6 hPa 0.0 l/m 0.3 km/h (0 Bft) O-SO 0.00 h 0.0 UV-I 0 W/m 8.1 C 8.3 C 0.8 km/h (0 Bft)
17.11.2006 07:00 8.3 C 100 % 1011.2 hPa 0.0 l/m 0.8 km/h (0 Bft) O-SO 0.00 h 0.0 UV-I 0 W/m 8.3 C 8.2 C 1.5 km/h (1 Bft)
17.11.2006 08:00 8.4 C 100 % 1012.2 hPa 0.0 l/m 0.1 km/h (0 Bft) O-SO 0.00 h 0.0 UV-I 24 W/m 8.4 C 8.4 C 0.3 km/h (0 Bft)
17.11.2006 09:00 9.3 C 100 % 1013.0 hPa 0.0 l/m 0.9 km/h (0 Bft) O-SO 0.00 h 0.5 UV-I 69 W/m 9.3 C 9.3 C 1.8 km/h (1 Bft)
17.11.2006 10:00 10.9 C 97 % 1013.9 hPa 0.0 l/m 2.9 km/h (1 Bft) O-SO 0.03 h 0.8 UV-I 154 W/m 10.4 C 10.9 C 4.3 km/h (1 Bft)
17.11.2006 11:00 13.3 C 85 % 1013.9 hPa 0.0 l/m 2.0 km/h (1 Bft) S-SO 0.33 h 1.1 UV-I 202 W/m 10.8 C 13.3 C 4.2 km/h (1 Bft)
17.11.2006 12:00 14.7 C 78 % 1013.5 hPa 0.0 l/m 4.2 km/h (1 Bft) W 0.58 h 1.4 UV-I 279 W/m 10.8 C 14.7 C 7.3 km/h (2 Bft)
17.11.2006 13:00 14.9 C 76 % 1013.4 hPa 0.0 l/m 1.1 km/h (1 Bft) W 0.23 h 1.1 UV-I 180 W/m 10.6 C 14.9 C 2.8 km/h (1 Bft)
17.11.2006 14:00 14.5 C 76 % 1013.5 hPa 0.0 l/m 1.2 km/h (1 Bft) W-SW 0.00 h 0.7 UV-I 102 W/m 10.3 C 14.5 C 2.9 km/h (1 Bft)
17.11.2006 15:00 13.7 C 80 % 1013.5 hPa 0.0 l/m 0.6 km/h (0 Bft) W-NW 0.00 h 0.5 UV-I 31 W/m 10.3 C 13.7 C 1.4 km/h (1 Bft)
17.11.2006 16:00 12.6 C 88 % 1013.5 hPa 0.0 l/m 0.0 km/h (0 Bft) N 0.00 h 0.0 UV-I 12 W/m 10.7 C 12.6 C 0.4 km/h (0 Bft)
17.11.2006 17:00 11.9 C 92 % 1013.5 hPa 0.0 l/m 0.0 km/h (0 Bft) N 0.00 h 0.0 UV-I 0 W/m 10.7 C 11.9 C 0.4 km/h (0 Bft)
17.11.2006 18:00 11.2 C 96 % 1013.3 hPa 0.0 l/m 0.1 km/h (0 Bft) W-NW 0.00 h 0.0 UV-I 0 W/m 10.6 C 11.2 C 0.4 km/h (0 Bft)
17.11.2006 19:00 10.8 C 97 % 1013.1 hPa 0.0 l/m 0.0 km/h (0 Bft) N 0.00 h 0.0 UV-I 0 W/m 10.4 C 10.8 C 0.3 km/h (0 Bft)
17.11.2006 20:00 10.5 C 97 % 1012.7 hPa 0.0 l/m 0.0 km/h (0 Bft) N-NW 0.00 h 0.0 UV-I 0 W/m 10.1 C 10.5 C 0.4 km/h (0 Bft)
17.11.2006 21:00 10.4 C 98 % 1013.2 hPa 0.2 l/m 0.6 km/h (0 Bft) O 0.00 h 0.0 UV-I 0 W/m 10.1 C 10.4 C 1.8 km/h (1 Bft)
17.11.2006 22:00 10.3 C 98 % 1013.2 hPa 0.2 l/m 0.8 km/h (0 Bft) NO 0.00 h 0.0 UV-I 0 W/m 9.9 C 10.3 C 1.8 km/h (1 Bft)
17.11.2006 23:00 10.2 C 98 % 1012.8 hPa 0.2 l/m 1.3 km/h (1 Bft) O-SO 0.00 h 0.0 UV-I 0 W/m 9.9 C 10.2 C 2.6 km/h (1 Bft)
18.11.2006 00:00 10.0 C 98 % 1012.5 hPa 0.0 l/m 0.4 km/h (0 Bft) NO 0.00 h 0.0 UV-I 0 W/m 9.7 C 10.0 C 1.3 km/h (1 Bft)
18.11.2006 01:00 9.8 C 98 % 1012.5 hPa 0.0 l/m 0.3 km/h (0 Bft) S-SO 0.00 h 0.0 UV-I 0 W/m 9.5 C 9.8 C 1.0 km/h (0 Bft)
18.11.2006 02:00 9.7 C 98 % 1013.2 hPa 0.0 l/m 2.0 km/h (1 Bft) O-SO 0.00 h 0.0 UV-I 0 W/m 9.4 C 9.7 C 3.4 km/h (1 Bft)
18.11.2006 03:00 9.7 C 99 % 1014.0 hPa 0.0 l/m 0.9 km/h (0 Bft) O 0.00 h 0.0 UV-I 0 W/m 9.6 C 9.7 C 1.9 km/h (1 Bft)
18.11.2006 04:00 9.8 C 99 % 1014.3 hPa 0.2 l/m 1.7 km/h (1 Bft) O-SO 0.00 h 0.0 UV-I 0 W/m 9.6 C 9.8 C 3.3 km/h (1 Bft)
18.11.2006 05:00 10.0 C 99 % 1015.0 hPa 0.4 l/m 1.2 km/h (1 Bft) O-SO 0.00 h 0.0 UV-I 0 W/m 9.8 C 10.0 C 2.7 km/h (1 Bft)
18.11.2006 06:00 10.1 C 98 % 1015.8 hPa 1.0 l/m 0.5 km/h (0 Bft) S-SO 0.00 h 0.0 UV-I 0 W/m 9.8 C 10.1 C 1.6 km/h (1 Bft)
18.11.2006 07:00 10.0 C 98 % 1016.3 hPa 0.0 l/m 1.2 km/h (1 Bft) O-SO 0.00 h 0.0 UV-I 6 W/m 9.7 C 10.0 C 2.0 km/h (1 Bft)
18.11.2006 08:00 9.8 C 98 % 1017.2 hPa 0.0 l/m 0.7 km/h (0 Bft) SO 0.00 h 0.0 UV-I 17 W/m 9.5 C 9.8 C 1.5 km/h (1 Bft)
18.11.2006 09:00 9.6 C 99 % 1017.8 hPa 0.0 l/m 0.5 km/h (0 Bft) N-NO 0.02 h 0.6 UV-I 88 W/m 9.4 C 9.6 C 1.1 km/h (1 Bft)
18.11.2006 10:00 10.4 C 100 % 1018.2 hPa 0.0 l/m 0.6 km/h (0 Bft) N 0.13 h 0.8 UV-I 134 W/m 10.4 C 10.4 C 1.7 km/h (1 Bft)
18.11.2006 11:00 11.4 C 96 % 1018.8 hPa 0.0 l/m 0.3 km/h (0 Bft) W-NW 0.30 h 1.2 UV-I 170 W/m 10.8 C 11.4 C 1.0 km/h (0 Bft)
18.11.2006 12:00 12.6 C 80 % 1018.8 hPa 0.0 l/m 3.5 km/h (1 Bft) W-NW 0.98 h 1.4 UV-I 330 W/m 9.2 C 12.6 C 6.2 km/h (2 Bft)
18.11.2006 13:00 13.5 C 62 % 1018.9 hPa 0.0 l/m 5.5 km/h (1 Bft) W-NW 0.97 h 1.3 UV-I 290 W/m 6.4 C 13.5 C 8.7 km/h (2 Bft)
18.11.2006 14:00 13.2 C 63 % 1019.1 hPa 0.0 l/m 1.1 km/h (1 Bft) W 0.03 h 0.7 UV-I 97 W/m 6.3 C 13.2 C 2.1 km/h (1 Bft)
18.11.2006 15:00 12.7 C 67 % 1019.5 hPa 0.0 l/m 0.0 km/h (0 Bft) N 0.13 h 0.6 UV-I 55 W/m 6.7 C 12.7 C 0.4 km/h (0 Bft)
18.11.2006 16:00 11.0 C 79 % 1020.1 hPa 0.0 l/m 0.7 km/h (0 Bft) SO 0.03 h 0.0 UV-I 11 W/m 7.5 C 11.0 C 1.3 km/h (1 Bft)
18.11.2006 17:00 9.2 C 86 % 1020.7 hPa 0.0 l/m 2.0 km/h (1 Bft) SO 0.00 h 0.0 UV-I 5 W/m 7.0 C 9.1 C 3.5 km/h (1 Bft)
18.11.2006 18:00 8.2 C 89 % 1021.5 hPa 0.0 l/m 3.2 km/h (1 Bft) O-SO 0.00 h 0.0 UV-I 0 W/m 6.5 C 7.9 C 4.7 km/h (1 Bft)
18.11.2006 19:00 7.1 C 93 % 1022.0 hPa 0.0 l/m 0.8 km/h (0 Bft) O-SO 0.00 h 0.0 UV-I 0 W/m 6.0 C 7.1 C 1.6 km/h (1 Bft)
18.11.2006 20:00 6.2 C 95 % 1022.3 hPa 0.0 l/m 0.8 km/h (0 Bft) O-SO 0.00 h 0.0 UV-I 0 W/m 5.5 C 6.2 C 1.3 km/h (1 Bft)
18.11.2006 21:00 5.6 C 97 % 1022.7 hPa 0.0 l/m 1.2 km/h (1 Bft) O-SO 0.00 h 0.0 UV-I 0 W/m 5.2 C 5.6 C 2.0 km/h (1 Bft)
18.11.2006 22:00 5.0 C 98 % 1022.8 hPa 0.0 l/m 0.3 km/h (0 Bft) O-SO 0.00 h 0.0 UV-I 0 W/m 4.7 C 5.0 C 0.9 km/h (0 Bft)
18.11.2006 23:00 4.7 C 98 % 1022.9 hPa 0.0 l/m 0.9 km/h (0 Bft) O-SO 0.00 h 0.0 UV-I 0 W/m 4.5 C 4.7 C 2.1 km/h (1 Bft)
19.11.2006 00:00 4.1 C 98 % 1023.1 hPa 0.0 l/m 0.8 km/h (0 Bft) O-SO 0.00 h 0.0 UV-I 0 W/m 3.9 C 4.1 C 1.6 km/h (1 Bft)
19.11.2006 01:00 3.7 C 99 % 1022.8 hPa 0.2 l/m 1.1 km/h (0 Bft) O-SO 0.00 h 0.0 UV-I 0 W/m 3.5 C 3.7 C 1.9 km/h (1 Bft)
19.11.2006 02:00 3.9 C 99 % 1022.9 hPa 0.0 l/m 0.3 km/h (0 Bft) O-SO 0.00 h 0.0 UV-I 0 W/m 3.8 C 3.9 C 1.1 km/h (1 Bft)
19.11.2006 03:00 3.8 C 100 % 1022.9 hPa 0.0 l/m 0.7 km/h (0 Bft) O-SO 0.00 h 0.0 UV-I 0 W/m 3.8 C 3.8 C 1.7 km/h (1 Bft)
19.11.2006 04:00 3.6 C 100 % 1022.8 hPa 0.0 l/m 0.0 km/h (0 Bft) N 0.00 h 0.0 UV-I 0 W/m 3.6 C 3.6 C 0.2 km/h (0 Bft)
19.11.2006 05:00 3.2 C 100 % 1022.7 hPa 0.0 l/m 0.2 km/h (0 Bft) O-SO 0.00 h 0.0 UV-I 0 W/m 3.2 C 3.2 C 0.8 km/h (0 Bft)
19.11.2006 06:00 3.5 C 100 % 1022.8 hPa 0.0 l/m 0.7 km/h (0 Bft) O-SO 0.00 h 0.0 UV-I 0 W/m 3.5 C 3.5 C 2.0 km/h (1 Bft)
19.11.2006 07:00 3.8 C 100 % 1022.7 hPa 0.0 l/m 1.2 km/h (1 Bft) O 0.00 h 0.0 UV-I 8 W/m 3.8 C 3.7 C 3.0 km/h (1 Bft)
19.11.2006 08:00 4.2 C 100 % 1022.8 hPa 0.0 l/m 0.5 km/h (0 Bft) O 0.00 h 0.0 UV-I 21 W/m 4.2 C 4.2 C 1.7 km/h (1 Bft)
19.11.2006 09:00 4.6 C 100 % 1022.7 hPa 0.0 l/m 0.5 km/h (0 Bft) O 0.00 h 0.0 UV-I 40 W/m 4.6 C 4.6 C 1.5 km/h (1 Bft)
19.11.2006 10:00 5.1 C 100 % 1022.5 hPa 0.0 l/m 0.9 km/h (0 Bft) O-SO 0.00 h 0.6 UV-I 77 W/m 5.1 C 5.0 C 1.6 km/h (1 Bft)
19.11.2006 11:00 5.8 C 100 % 1021.9 hPa 0.0 l/m 0.1 km/h (0 Bft) O-SO 0.00 h 0.7 UV-I 95 W/m 5.8 C 5.8 C 0.7 km/h (0 Bft)
19.11.2006 12:00 6.5 C 100 % 1021.0 hPa 0.0 l/m 1.2 km/h (1 Bft) N-NW 0.00 h 0.7 UV-I 92 W/m 6.4 C 6.4 C 2.7 km/h (1 Bft)
19.11.2006 13:00 7.1 C 96 % 1020.4 hPa 0.0 l/m 0.7 km/h (0 Bft) N-NW 0.00 h 0.6 UV-I 70 W/m 6.6 C 7.1 C 2.1 km/h (1 Bft)
19.11.2006 14:00 7.8 C 93 % 1019.7 hPa 0.0 l/m 0.9 km/h (0 Bft) N-NW 0.00 h 0.5 UV-I 43 W/m 6.7 C 7.7 C 2.3 km/h (1 Bft)
19.11.2006 15:00 7.5 C 96 % 1020.0 hPa 0.6 l/m 0.0 km/h (0 Bft) N-NW 0.00 h 0.0 UV-I 21 W/m 6.9 C 7.5 C 0.4 km/h (0 Bft)
19.11.2006 16:00 7.7 C 98 % 1019.9 hPa 0.2 l/m 1.4 km/h (1 Bft) O 0.00 h 0.0 UV-I 9 W/m 7.4 C 7.7 C 2.2 km/h (1 Bft)
19.11.2006 17:00 8.1 C 98 % 1019.9 hPa 0.6 l/m 1.9 km/h (1 Bft) SO 0.00 h 0.0 UV-I 0 W/m 7.8 C 8.1 C 3.6 km/h (1 Bft)
19.11.2006 18:00 8.2 C 97 % 1020.0 hPa 1.0 l/m 0.6 km/h (0 Bft) NW 0.00 h 0.0 UV-I 0 W/m 7.8 C 8.2 C 1.9 km/h (1 Bft)
19.11.2006 19:00 8.5 C 97 % 1020.8 hPa 0.4 l/m 10.6 km/h (2 Bft) W 0.00 h 0.0 UV-I 0 W/m 8.0 C 6.8 C 17.1 km/h (3 Bft)
19.11.2006 20:00 8.1 C 88 % 1021.6 hPa 0.0 l/m 16.9 km/h (3 Bft) W-NW 0.00 h 0.0 UV-I 0 W/m 6.2 C 5.4 C 26.3 km/h (4 Bft)
19.11.2006 21:00 7.0 C 90 % 1023.2 hPa 0.4 l/m 7.8 km/h (2 Bft) W 0.00 h 0.0 UV-I 0 W/m 5.4 C 5.7 C 13.0 km/h (3 Bft)
19.11.2006 22:00 6.6 C 91 % 1023.8 hPa 0.0 l/m 3.1 km/h (1 Bft) S 0.00 h 0.0 UV-I 0 W/m 5.2 C 6.4 C 6.7 km/h (2 Bft)
19.11.2006 23:00 6.3 C 92 % 1024.1 hPa 0.0 l/m 3.3 km/h (1 Bft) S 0.00 h 0.0 UV-I 0 W/m 5.1 C 6.1 C 7.6 km/h (2 Bft)
Min-Datum _ 19.11.06 18.11.06 17.11.06 - 13.11.06 - - - - 13.11.06 19.11.06 13.11.06
_ Min-Zeit 05:31 13:34 05:30 - 00:37 - - - - 04:26 06:10 04:51
Minimum _ 3.1 C 57 % 1010.4 hPa - 0.0 km/h (0 Bft) - - - - 2.6 C 2.0 C 0.0 km/h (0 Bft)
Max-Datum _ 17.11.06 15.11.06 19.11.06 14.11.06 13.11.06 - 13.11.06 13.11.06 17.11.06 17.11.06 17.11.06 19.11.06
_ Max-Zeit 13:40 19:31 23:45 06:07 14:12 - 11:55 11:56 12:22 11:48 13:40 20:05
Maximum _ 15.2 C 100 % 1024.2 hPa 1.6 l/m 24.8 km/h
W (4 Bft)
- 0.02 h 1.6 UV-I 487 W/m 11.8 C 15.2 C 43.3 km/h
W (6 Bft)
Durchschnitt _ 8.9 C 93 % 1017.2 hPa #11.2 l/m 1.8 km/h (1 Bft) S-SO #6:35 h 0.8 UV-I 86 W/m 7.7 C 8.8 C 3.7 km/h (1 Bft)
© Kaiko 2006